sensor_id;sensor_type;location;lat;lon;timestamp;pressure;altitude;pressure_sealevel;temperature;humidity
27643;BME280;15053;48.618;10.024;2023-03-04T00:02:06;94616.09;;;2.82;69.56
27643;BME280;15053;48.618;10.024;2023-03-04T00:04:33;94624.59;;;2.83;70.16
27643;BME280;15053;48.618;10.024;2023-03-04T00:06:59;94610.63;;;2.79;69.65
27643;BME280;15053;48.618;10.024;2023-03-04T00:09:26;94620.78;;;2.85;70.22
27643;BME280;15053;48.618;10.024;2023-03-04T00:11:52;94614.31;;;2.83;70.46
27643;BME280;15053;48.618;10.024;2023-03-04T00:14:19;94620.53;;;2.87;69.86
27643;BME280;15053;48.618;10.024;2023-03-04T00:16:45;94621.78;;;2.84;69.74
27643;BME280;15053;48.618;10.024;2023-03-04T00:19:14;94610.84;;;2.77;70.03
27643;BME280;15053;48.618;10.024;2023-03-04T00:21:40;94611.69;;;2.66;70.04
27643;BME280;15053;48.618;10.024;2023-03-04T00:24:07;94606.53;;;2.66;69.93
27643;BME280;15053;48.618;10.024;2023-03-04T00:26:33;94612.44;;;2.67;69.78
27643;BME280;15053;48.618;10.024;2023-03-04T00:29:00;94608.88;;;2.68;70.19
27643;BME280;15053;48.618;10.024;2023-03-04T00:31:26;94604.50;;;2.68;70.71
27643;BME280;15053;48.618;10.024;2023-03-04T00:33:53;94607.97;;;2.74;70.59
27643;BME280;15053;48.618;10.024;2023-03-04T00:36:19;94606.94;;;2.75;70.92
27643;BME280;15053;48.618;10.024;2023-03-04T00:38:46;94607.50;;;2.77;70.95
27643;BME280;15053;48.618;10.024;2023-03-04T00:41:12;94610.06;;;2.77;71.29
27643;BME280;15053;48.618;10.024;2023-03-04T00:43:40;94608.59;;;2.81;70.99
27643;BME280;15053;48.618;10.024;2023-03-04T00:46:06;94602.66;;;2.80;71.55
27643;BME280;15053;48.618;10.024;2023-03-04T00:48:33;94607.03;;;2.80;71.52
27643;BME280;15053;48.618;10.024;2023-03-04T00:51:00;94608.59;;;2.81;70.88
27643;BME280;15053;48.618;10.024;2023-03-04T00:53:26;94609.03;;;2.78;71.34
27643;BME280;15053;48.618;10.024;2023-03-04T00:55:53;94602.56;;;2.75;71.25
27643;BME280;15053;48.618;10.024;2023-03-04T00:58:19;94595.47;;;2.66;71.38
27643;BME280;15053;48.618;10.024;2023-03-04T01:00:46;94600.28;;;2.62;70.91
27643;BME280;15053;48.618;10.024;2023-03-04T01:03:12;94606.66;;;2.60;70.75
27643;BME280;15053;48.618;10.024;2023-03-04T01:05:39;94593.47;;;2.56;71.59
27643;BME280;15053;48.618;10.024;2023-03-04T01:08:05;94592.13;;;2.54;71.78
27643;BME280;15053;48.618;10.024;2023-03-04T01:10:32;94593.72;;;2.55;71.99
27643;BME280;15053;48.618;10.024;2023-03-04T01:12:59;94587.53;;;2.56;71.23
27643;BME280;15053;48.618;10.024;2023-03-04T01:15:25;94590.13;;;2.56;71.67
27643;BME280;15053;48.618;10.024;2023-03-04T01:17:53;94584.22;;;2.55;71.54
27643;BME280;15053;48.618;10.024;2023-03-04T01:20:20;94589.56;;;2.54;72.01
27643;BME280;15053;48.618;10.024;2023-03-04T01:22:46;94585.91;;;2.50;72.73
27643;BME280;15053;48.618;10.024;2023-03-04T01:25:13;94578.09;;;2.45;72.36
27643;BME280;15053;48.618;10.024;2023-03-04T01:27:40;94585.78;;;2.45;72.76
27643;BME280;15053;48.618;10.024;2023-03-04T01:30:06;94582.13;;;2.41;72.68
27643;BME280;15053;48.618;10.024;2023-03-04T01:32:33;94587.72;;;2.37;72.69
27643;BME280;15053;48.618;10.024;2023-03-04T01:35:00;94584.03;;;2.33;72.73
27643;BME280;15053;48.618;10.024;2023-03-04T01:37:28;94573.66;;;2.28;72.87
27643;BME280;15053;48.618;10.024;2023-03-04T01:39:54;94577.25;;;2.27;72.89
27643;BME280;15053;48.618;10.024;2023-03-04T01:42:22;94580.47;;;2.23;72.91
27643;BME280;15053;48.618;10.024;2023-03-04T01:44:50;94578.59;;;2.18;73.44
27643;BME280;15053;48.618;10.024;2023-03-04T01:47:17;94569.91;;;2.08;73.20
27643;BME280;15053;48.618;10.024;2023-03-04T01:49:47;94575.59;;;2.10;73.73
27643;BME280;15053;48.618;10.024;2023-03-04T01:52:16;94569.69;;;2.09;73.88
27643;BME280;15053;48.618;10.024;2023-03-04T01:54:42;94567.91;;;2.10;74.26
27643;BME280;15053;48.618;10.024;2023-03-04T01:57:18;94573.28;;;2.08;73.42
27643;BME280;15053;48.618;10.024;2023-03-04T01:59:46;94560.09;;;2.05;73.60
27643;BME280;15053;48.618;10.024;2023-03-04T02:02:13;94568.59;;;2.05;74.54
27643;BME280;15053;48.618;10.024;2023-03-04T02:04:40;94545.38;;;2.00;74.04
27643;BME280;15053;48.618;10.024;2023-03-04T02:07:07;94553.19;;;2.05;75.01
27643;BME280;15053;48.618;10.024;2023-03-04T02:09:36;94559.31;;;2.04;74.75
27643;BME280;15053;48.618;10.024;2023-03-04T02:12:03;94553.63;;;2.02;75.22
27643;BME280;15053;48.618;10.024;2023-03-04T02:14:30;94552.50;;;1.98;75.27
27643;BME280;15053;48.618;10.024;2023-03-04T02:16:56;94549.19;;;1.98;74.80
27643;BME280;15053;48.618;10.024;2023-03-04T02:19:40;94546.28;;;1.94;75.63
27643;BME280;15053;48.618;10.024;2023-03-04T02:22:08;94551.06;;;1.91;75.71
27643;BME280;15053;48.618;10.024;2023-03-04T02:24:40;94547.16;;;1.88;76.12
27643;BME280;15053;48.618;10.024;2023-03-04T02:27:08;94546.72;;;1.91;76.29
27643;BME280;15053;48.618;10.024;2023-03-04T02:29:34;94545.47;;;1.94;76.09
27643;BME280;15053;48.618;10.024;2023-03-04T02:32:02;94548.94;;;1.99;77.30
27643;BME280;15053;48.618;10.024;2023-03-04T02:34:35;94551.59;;;2.04;77.25
27643;BME280;15053;48.618;10.024;2023-03-04T02:37:03;94549.03;;;2.04;77.45
27643;BME280;15053;48.618;10.024;2023-03-04T02:39:38;94543.34;;;2.02;77.14
27643;BME280;15053;48.618;10.024;2023-03-04T02:42:05;94545.47;;;2.05;78.05
27643;BME280;15053;48.618;10.024;2023-03-04T02:44:38;94548.59;;;2.07;78.34
27643;BME280;15053;48.618;10.024;2023-03-04T02:47:08;94551.16;;;2.07;77.85
27643;BME280;15053;48.618;10.024;2023-03-04T02:49:37;94552.72;;;2.08;78.51
27643;BME280;15053;48.618;10.024;2023-03-04T02:52:17;94554.28;;;2.09;78.27
27643;BME280;15053;48.618;10.024;2023-03-04T02:54:45;94548.25;;;2.04;78.31
27643;BME280;15053;48.618;10.024;2023-03-04T02:57:13;94551.41;;;2.06;78.57
27643;BME280;15053;48.618;10.024;2023-03-04T02:59:43;94542.56;;;2.02;78.38
27643;BME280;15053;48.618;10.024;2023-03-04T03:02:15;94551.06;;;2.02;78.76
27643;BME280;15053;48.618;10.024;2023-03-04T03:04:41;94553.06;;;2.00;77.63
27643;BME280;15053;48.618;10.024;2023-03-04T03:07:11;94551.97;;;1.96;77.79
27643;BME280;15053;48.618;10.024;2023-03-04T03:09:38;94563.22;;;1.95;77.76
27643;BME280;15053;48.618;10.024;2023-03-04T03:12:05;94554.97;;;1.93;77.85
27643;BME280;15053;48.618;10.024;2023-03-04T03:14:32;94545.16;;;1.90;79.10
27643;BME280;15053;48.618;10.024;2023-03-04T03:16:59;94553.75;;;1.96;78.24
27643;BME280;15053;48.618;10.024;2023-03-04T03:19:26;94546.81;;;1.96;78.28
27643;BME280;15053;48.618;10.024;2023-03-04T03:21:53;94547.81;;;1.95;78.75
27643;BME280;15053;48.618;10.024;2023-03-04T03:24:20;94545.72;;;1.92;78.44
27643;BME280;15053;48.618;10.024;2023-03-04T03:26:46;94548.28;;;1.92;78.73
27643;BME280;15053;48.618;10.024;2023-03-04T03:29:13;94551.84;;;1.91;78.63
27643;BME280;15053;48.618;10.024;2023-03-04T03:31:39;94549.50;;;1.90;78.99
27643;BME280;15053;48.618;10.024;2023-03-04T03:34:06;94547.94;;;1.89;78.36
27643;BME280;15053;48.618;10.024;2023-03-04T03:36:32;94550.53;;;1.89;79.07
27643;BME280;15053;48.618;10.024;2023-03-04T03:38:59;94551.97;;;1.85;78.83
27643;BME280;15053;48.618;10.024;2023-03-04T03:41:25;94553.97;;;1.83;78.25
27643;BME280;15053;48.618;10.024;2023-03-04T03:43:52;94549.63;;;1.83;78.25
27643;BME280;15053;48.618;10.024;2023-03-04T03:46:18;94548.59;;;1.84;78.66
27643;BME280;15053;48.618;10.024;2023-03-04T03:48:45;94553.97;;;1.83;78.00
27643;BME280;15053;48.618;10.024;2023-03-04T03:51:11;94549.53;;;1.78;78.28
27643;BME280;15053;48.618;10.024;2023-03-04T03:53:38;94551.75;;;1.74;78.56
27643;BME280;15053;48.618;10.024;2023-03-04T03:56:04;94546.28;;;1.71;78.89
27643;BME280;15053;48.618;10.024;2023-03-04T03:58:31;94548.31;;;1.69;78.61
27643;BME280;15053;48.618;10.024;2023-03-04T04:00:58;94548.75;;;1.66;78.91
27643;BME280;15053;48.618;10.024;2023-03-04T04:03:24;94543.50;;;1.61;80.04
27643;BME280;15053;48.618;10.024;2023-03-04T04:05:51;94543.72;;;1.59;80.15
27643;BME280;15053;48.618;10.024;2023-03-04T04:08:17;94539.81;;;1.57;79.38
27643;BME280;15053;48.618;10.024;2023-03-04T04:10:44;94536.69;;;1.55;80.26
27643;BME280;15053;48.618;10.024;2023-03-04T04:13:11;94528.56;;;1.46;80.39
27643;BME280;15053;48.618;10.024;2023-03-04T04:15:38;94538.81;;;1.46;80.60
27643;BME280;15053;48.618;10.024;2023-03-04T04:18:05;94533.13;;;1.44;80.48
27643;BME280;15053;48.618;10.024;2023-03-04T04:20:33;94537.47;;;1.44;81.33
27643;BME280;15053;48.618;10.024;2023-03-04T04:23:01;94534.38;;;1.42;81.48
27643;BME280;15053;48.618;10.024;2023-03-04T04:25:28;94532.78;;;1.41;81.22
27643;BME280;15053;48.618;10.024;2023-03-04T04:27:54;94530.66;;;1.38;81.52
27643;BME280;15053;48.618;10.024;2023-03-04T04:30:21;94537.03;;;1.35;80.59
27643;BME280;15053;48.618;10.024;2023-03-04T04:32:47;94536.72;;;1.32;80.95
27643;BME280;15053;48.618;10.024;2023-03-04T04:35:14;94538.16;;;1.28;81.66
27643;BME280;15053;48.618;10.024;2023-03-04T04:37:40;94536.81;;;1.25;81.69
27643;BME280;15053;48.618;10.024;2023-03-04T04:40:07;94537.03;;;1.24;81.56
27643;BME280;15053;48.618;10.024;2023-03-04T04:42:34;94537.69;;;1.19;81.92
27643;BME280;15053;48.618;10.024;2023-03-04T04:45:00;94536.91;;;1.18;81.68
27643;BME280;15053;48.618;10.024;2023-03-04T04:47:27;94538.13;;;1.16;81.39
27643;BME280;15053;48.618;10.024;2023-03-04T04:49:53;94534.47;;;1.12;81.97
27643;BME280;15053;48.618;10.024;2023-03-04T04:52:19;94542.59;;;1.09;81.81
27643;BME280;15053;48.618;10.024;2023-03-04T04:54:46;94542.25;;;1.05;82.67
27643;BME280;15053;48.618;10.024;2023-03-04T04:57:12;94542.69;;;1.02;82.58
27643;BME280;15053;48.618;10.024;2023-03-04T04:59:39;94549.81;;;1.00;82.74
27643;BME280;15053;48.618;10.024;2023-03-04T05:02:05;94540.78;;;0.98;83.01
27643;BME280;15053;48.618;10.024;2023-03-04T05:04:32;94541.22;;;0.95;83.54
27643;BME280;15053;48.618;10.024;2023-03-04T05:06:58;94541.66;;;0.92;83.47
27643;BME280;15053;48.618;10.024;2023-03-04T05:09:25;94534.97;;;0.91;82.67
27643;BME280;15053;48.618;10.024;2023-03-04T05:11:51;94533.63;;;0.88;83.34
27643;BME280;15053;48.618;10.024;2023-03-04T05:14:18;94529.72;;;0.86;83.95
27643;BME280;15053;48.618;10.024;2023-03-04T05:16:44;94531.50;;;0.85;83.66
27643;BME280;15053;48.618;10.024;2023-03-04T05:19:11;94526.84;;;0.82;83.26
27643;BME280;15053;48.618;10.024;2023-03-04T05:21:37;94530.59;;;0.80;83.34
27643;BME280;15053;48.618;10.024;2023-03-04T05:24:04;94534.84;;;0.74;83.45
27643;BME280;15053;48.618;10.024;2023-03-04T05:26:30;94536.81;;;0.72;82.92
27643;BME280;15053;48.618;10.024;2023-03-04T05:28:57;94527.00;;;0.69;83.80
27643;BME280;15053;48.618;10.024;2023-03-04T05:31:23;94528.03;;;0.68;83.83
27643;BME280;15053;48.618;10.024;2023-03-04T05:33:50;94534.38;;;0.66;83.21
27643;BME280;15053;48.618;10.024;2023-03-04T05:36:16;94526.53;;;0.60;83.32
27643;BME280;15053;48.618;10.024;2023-03-04T05:38:42;94524.84;;;0.54;84.21
27643;BME280;15053;48.618;10.024;2023-03-04T05:41:09;94527.63;;;0.53;83.89
27643;BME280;15053;48.618;10.024;2023-03-04T05:43:35;94526.84;;;0.52;84.28
27643;BME280;15053;48.618;10.024;2023-03-04T05:46:03;94525.28;;;0.51;84.16
27643;BME280;15053;48.618;10.024;2023-03-04T05:48:30;94531.03;;;0.47;84.67
27643;BME280;15053;48.618;10.024;2023-03-04T05:50:59;94534.81;;;0.44;85.12
27643;BME280;15053;48.618;10.024;2023-03-04T05:53:26;94530.91;;;0.42;85.60
27643;BME280;15053;48.618;10.024;2023-03-04T05:55:53;94541.94;;;0.42;85.37
27643;BME280;15053;48.618;10.024;2023-03-04T05:58:20;94537.91;;;0.35;86.00
27643;BME280;15053;48.618;10.024;2023-03-04T06:00:46;94540.47;;;0.35;86.01
27643;BME280;15053;48.618;10.024;2023-03-04T06:03:18;94545.19;;;0.38;86.71
27643;BME280;15053;48.618;10.024;2023-03-04T06:05:45;94552.63;;;0.39;86.79
27643;BME280;15053;48.618;10.024;2023-03-04T06:08:12;94547.31;;;0.41;87.65
27643;BME280;15053;48.618;10.024;2023-03-04T06:10:40;94553.00;;;0.43;87.40
27643;BME280;15053;48.618;10.024;2023-03-04T06:13:07;94545.84;;;0.45;87.00
27643;BME280;15053;48.618;10.024;2023-03-04T06:15:34;94552.13;;;0.49;87.17
27643;BME280;15053;48.618;10.024;2023-03-04T06:18:01;94552.69;;;0.51;88.16
27643;BME280;15053;48.618;10.024;2023-03-04T06:20:27;94561.16;;;0.51;87.33
27643;BME280;15053;48.618;10.024;2023-03-04T06:22:54;94564.50;;;0.52;86.88
27643;BME280;15053;48.618;10.024;2023-03-04T06:25:20;94559.56;;;0.50;87.00
27643;BME280;15053;48.618;10.024;2023-03-04T06:27:47;94560.00;;;0.47;87.60
27643;BME280;15053;48.618;10.024;2023-03-04T06:30:16;94566.34;;;0.45;87.73
27643;BME280;15053;48.618;10.024;2023-03-04T06:32:43;94564.22;;;0.42;87.34
27643;BME280;15053;48.618;10.024;2023-03-04T06:35:11;94572.13;;;0.40;87.47
27643;BME280;15053;48.618;10.024;2023-03-04T06:37:37;94561.22;;;0.45;88.13
27643;BME280;15053;48.618;10.024;2023-03-04T06:40:04;94568.47;;;0.48;88.38
27643;BME280;15053;48.618;10.024;2023-03-04T06:42:34;94573.59;;;0.48;87.64
27643;BME280;15053;48.618;10.024;2023-03-04T06:45:01;94577.94;;;0.47;87.75
27643;BME280;15053;48.618;10.024;2023-03-04T06:47:28;94576.97;;;0.48;87.67
27643;BME280;15053;48.618;10.024;2023-03-04T06:49:55;94574.75;;;0.52;87.77
27643;BME280;15053;48.618;10.024;2023-03-04T06:52:21;94581.00;;;0.56;88.51
27643;BME280;15053;48.618;10.024;2023-03-04T06:54:48;94584.69;;;0.60;88.54
27643;BME280;15053;48.618;10.024;2023-03-04T06:57:14;94581.91;;;0.62;87.52
27643;BME280;15053;48.618;10.024;2023-03-04T06:59:40;94588.50;;;0.69;88.41
27643;BME280;15053;48.618;10.024;2023-03-04T07:02:10;94590.88;;;0.71;88.73
27643;BME280;15053;48.618;10.024;2023-03-04T07:04:37;94587.28;;;0.72;87.58
27643;BME280;15053;48.618;10.024;2023-03-04T07:07:04;94586.53;;;0.71;88.20
27643;BME280;15053;48.618;10.024;2023-03-04T07:09:30;94588.84;;;0.73;87.58
27643;BME280;15053;48.618;10.024;2023-03-04T07:11:57;94585.75;;;0.71;88.36
27643;BME280;15053;48.618;10.024;2023-03-04T07:14:24;94587.28;;;0.72;88.15
27643;BME280;15053;48.618;10.024;2023-03-04T07:16:51;94571.22;;;0.65;88.37
27643;BME280;15053;48.618;10.024;2023-03-04T07:19:17;94590.44;;;0.74;87.92
27643;BME280;15053;48.618;10.024;2023-03-04T07:21:44;94598.59;;;0.82;87.55
27643;BME280;15053;48.618;10.024;2023-03-04T07:24:10;94596.03;;;0.82;87.38
27643;BME280;15053;48.618;10.024;2023-03-04T07:26:37;94594.47;;;0.81;88.11
27643;BME280;15053;48.618;10.024;2023-03-04T07:29:04;94585.63;;;0.77;88.47
27643;BME280;15053;48.618;10.024;2023-03-04T07:31:33;94599.03;;;0.79;87.96
27643;BME280;15053;48.618;10.024;2023-03-04T07:34:03;94603.72;;;0.82;88.48
27643;BME280;15053;48.618;10.024;2023-03-04T07:36:30;94606.41;;;0.87;87.53
27643;BME280;15053;48.618;10.024;2023-03-04T07:38:57;94608.97;;;0.87;88.18
27643;BME280;15053;48.618;10.024;2023-03-04T07:41:25;94611.09;;;0.90;87.91
27643;BME280;15053;48.618;10.024;2023-03-04T07:43:52;94617.16;;;0.96;88.52
27643;BME280;15053;48.618;10.024;2023-03-04T07:46:18;94620.47;;;0.96;88.46
27643;BME280;15053;48.618;10.024;2023-03-04T07:48:45;94612.66;;;0.91;87.57
27643;BME280;15053;48.618;10.024;2023-03-04T07:51:16;94614.31;;;0.86;88.16
27643;BME280;15053;48.618;10.024;2023-03-04T07:53:46;94611.75;;;0.86;88.02
27643;BME280;15053;48.618;10.024;2023-03-04T07:56:21;94618.78;;;0.90;88.03
27643;BME280;15053;48.618;10.024;2023-03-04T07:58:48;94617.78;;;0.91;87.50
27643;BME280;15053;48.618;10.024;2023-03-04T08:01:20;94617.00;;;0.91;87.47
27643;BME280;15053;48.618;10.024;2023-03-04T08:03:47;94616.56;;;0.94;87.87
27643;BME280;15053;48.618;10.024;2023-03-04T08:06:15;94617.56;;;0.93;87.18
27643;BME280;15053;48.618;10.024;2023-03-04T08:08:42;94620.47;;;0.96;88.27
27643;BME280;15053;48.618;10.024;2023-03-04T08:11:17;94620.63;;;1.01;88.21
27643;BME280;15053;48.618;10.024;2023-03-04T08:13:44;94620.75;;;1.06;87.02
27643;BME280;15053;48.618;10.024;2023-03-04T08:16:12;94618.22;;;1.18;86.64
27643;BME280;15053;48.618;10.024;2023-03-04T08:18:46;94616.88;;;1.27;87.34
27643;BME280;15053;48.618;10.024;2023-03-04T08:21:15;94620.56;;;1.31;86.74
27643;BME280;15053;48.618;10.024;2023-03-04T08:23:41;94621.38;;;1.32;86.64
27643;BME280;15053;48.618;10.024;2023-03-04T08:26:14;94624.13;;;1.30;86.35
27643;BME280;15053;48.618;10.024;2023-03-04T08:28:42;94625.78;;;1.25;85.55
27643;BME280;15053;48.618;10.024;2023-03-04T08:31:08;94630.81;;;1.19;85.82
27643;BME280;15053;48.618;10.024;2023-03-04T08:33:35;94629.22;;;1.18;84.95
27643;BME280;15053;48.618;10.024;2023-03-04T08:36:01;94634.34;;;1.18;85.77
27643;BME280;15053;48.618;10.024;2023-03-04T08:38:28;94636.84;;;1.25;84.67
27643;BME280;15053;48.618;10.024;2023-03-04T08:40:55;94641.19;;;1.25;85.26
27643;BME280;15053;48.618;10.024;2023-03-04T08:43:23;94644.53;;;1.25;85.11
27643;BME280;15053;48.618;10.024;2023-03-04T08:45:51;94636.75;;;1.32;85.45
27643;BME280;15053;48.618;10.024;2023-03-04T08:48:19;94643.31;;;1.28;85.00
27643;BME280;15053;48.618;10.024;2023-03-04T08:50:45;94647.66;;;1.27;85.22
27643;BME280;15053;48.618;10.024;2023-03-04T08:53:13;94640.19;;;1.26;85.10
27643;BME280;15053;48.618;10.024;2023-03-04T08:55:40;94627.44;;;1.19;84.59
27643;BME280;15053;48.618;10.024;2023-03-04T08:58:08;94641.19;;;1.25;84.82
27643;BME280;15053;48.618;10.024;2023-03-04T09:00:37;94648.44;;;1.28;84.88
27643;BME280;15053;48.618;10.024;2023-03-04T09:03:03;94648.00;;;1.31;85.12
27643;BME280;15053;48.618;10.024;2023-03-04T09:05:31;94647.44;;;1.29;84.57
27643;BME280;15053;48.618;10.024;2023-03-04T09:07:57;94655.16;;;1.29;84.42
27643;BME280;15053;48.618;10.024;2023-03-04T09:10:24;94663.84;;;1.28;85.00
27643;BME280;15053;48.618;10.024;2023-03-04T09:12:51;94660.16;;;1.24;84.27
27643;BME280;15053;48.618;10.024;2023-03-04T09:15:17;94665.13;;;1.18;83.80
27643;BME280;15053;48.618;10.024;2023-03-04T09:17:44;94656.44;;;1.19;84.44
27643;BME280;15053;48.618;10.024;2023-03-04T09:20:11;94663.41;;;1.31;84.83
27643;BME280;15053;48.618;10.024;2023-03-04T09:22:39;94659.38;;;1.35;84.58
27643;BME280;15053;48.618;10.024;2023-03-04T09:25:07;94663.31;;;1.37;84.58
27643;BME280;15053;48.618;10.024;2023-03-04T09:27:38;94660.50;;;1.39;83.76
27643;BME280;15053;48.618;10.024;2023-03-04T09:30:05;94668.44;;;1.37;84.90
27643;BME280;15053;48.618;10.024;2023-03-04T09:32:31;94672.78;;;1.37;83.72
27643;BME280;15053;48.618;10.024;2023-03-04T09:34:58;94664.97;;;1.32;84.20
27643;BME280;15053;48.618;10.024;2023-03-04T09:37:24;94667.53;;;1.32;83.83
27643;BME280;15053;48.618;10.024;2023-03-04T09:39:51;94675.88;;;1.27;84.69
27643;BME280;15053;48.618;10.024;2023-03-04T09:42:27;94666.34;;;1.16;84.13
27643;BME280;15053;48.618;10.024;2023-03-04T09:44:55;94672.81;;;1.07;84.90
27643;BME280;15053;48.618;10.024;2023-03-04T09:47:23;94674.47;;;1.01;84.71
27643;BME280;15053;48.618;10.024;2023-03-04T09:50:00;94673.44;;;1.02;84.55
27643;BME280;15053;48.618;10.024;2023-03-04T09:55:40;94676.00;;;1.02;85.68
27643;BME280;15053;48.618;10.024;2023-03-04T09:58:29;94675.13;;;1.08;86.09
27643;BME280;15053;48.618;10.024;2023-03-04T10:01:08;94676.22;;;1.01;85.50
27643;BME280;15053;48.618;10.024;2023-03-04T10:06:52;94669.84;;;0.92;85.16
27643;BME280;15053;48.618;10.024;2023-03-04T10:09:27;94666.00;;;0.83;85.36
27643;BME280;15053;48.618;10.024;2023-03-04T10:11:59;94668.63;;;0.94;86.23
27643;BME280;15053;48.618;10.024;2023-03-04T10:17:32;94671.00;;;1.07;85.81
27643;BME280;15053;48.618;10.024;2023-03-04T10:22:49;94662.06;;;0.98;86.33
27643;BME280;15053;48.618;10.024;2023-03-04T10:27:57;94666.19;;;0.99;85.34
27643;BME280;15053;48.618;10.024;2023-03-04T10:33:14;94669.03;;;0.91;86.13
27643;BME280;15053;48.618;10.024;2023-03-04T10:35:44;94664.78;;;0.85;85.85
27643;BME280;15053;48.618;10.024;2023-03-04T10:38:12;94675.13;;;0.79;85.07
27643;BME280;15053;48.618;10.024;2023-03-04T10:40:40;94665.97;;;0.71;85.97
27643;BME280;15053;48.618;10.024;2023-03-04T10:43:18;94667.63;;;0.77;85.59
27643;BME280;15053;48.618;10.024;2023-03-04T10:45:46;94669.66;;;0.75;86.57
27643;BME280;15053;48.618;10.024;2023-03-04T10:48:23;94662.38;;;0.72;86.64
27643;BME280;15053;48.618;10.024;2023-03-04T10:50:50;94668.28;;;0.73;86.15
27643;BME280;15053;48.618;10.024;2023-03-04T10:53:36;94660.25;;;0.69;87.26
27643;BME280;15053;48.618;10.024;2023-03-04T10:59:29;94662.97;;;0.74;86.64
27643;BME280;15053;48.618;10.024;2023-03-04T11:02:13;94666.53;;;0.73;87.66
27643;BME280;15053;48.618;10.024;2023-03-04T11:04:40;94653.28;;;0.76;87.50
27643;BME280;15053;48.618;10.024;2023-03-04T11:07:08;94662.88;;;0.81;87.33
27643;BME280;15053;48.618;10.024;2023-03-04T11:09:36;94649.38;;;0.74;86.56
27643;BME280;15053;48.618;10.024;2023-03-04T11:12:09;94656.53;;;0.83;87.68
27643;BME280;15053;48.618;10.024;2023-03-04T11:14:40;94651.75;;;0.87;86.51
27643;BME280;15053;48.618;10.024;2023-03-04T11:19:48;94656.66;;;0.88;86.67
27643;BME280;15053;48.618;10.024;2023-03-04T11:22:19;94643.28;;;0.86;86.35
27643;BME280;15053;48.618;10.024;2023-03-04T11:25:10;94635.25;;;0.83;86.31
27643;BME280;15053;48.618;10.024;2023-03-04T11:27:45;94638.03;;;0.81;86.46
27643;BME280;15053;48.618;10.024;2023-03-04T11:30:36;94641.81;;;0.79;87.00
27643;BME280;15053;48.618;10.024;2023-03-04T11:33:19;94646.50;;;0.82;87.47
27643;BME280;15053;48.618;10.024;2023-03-04T11:36:02;94650.53;;;0.89;87.00
27643;BME280;15053;48.618;10.024;2023-03-04T11:38:42;94642.16;;;0.82;86.47
27643;BME280;15053;48.618;10.024;2023-03-04T11:41:24;94631.75;;;0.77;87.29
27643;BME280;15053;48.618;10.024;2023-03-04T11:43:53;94635.78;;;0.73;87.07
27643;BME280;15053;48.618;10.024;2023-03-04T11:52:00;94640.91;;;0.73;87.40
27643;BME280;15053;48.618;10.024;2023-03-04T11:54:49;94637.53;;;0.73;86.95
27643;BME280;15053;48.618;10.024;2023-03-04T12:08:26;94614.13;;;0.69;87.67
27643;BME280;15053;48.618;10.024;2023-03-04T12:11:05;94611.38;;;0.71;87.05
27643;BME280;15053;48.618;10.024;2023-03-04T12:13:44;94605.00;;;0.73;87.53
27643;BME280;15053;48.618;10.024;2023-03-04T12:16:20;94603.56;;;0.77;87.56
27643;BME280;15053;48.618;10.024;2023-03-04T12:19:19;94593.13;;;0.79;87.62
27643;BME280;15053;48.618;10.024;2023-03-04T12:22:09;94591.09;;;0.81;87.63
27643;BME280;15053;48.618;10.024;2023-03-04T12:24:55;94587.44;;;0.88;87.76
27643;BME280;15053;48.618;10.024;2023-03-04T12:34:02;94582.78;;;0.97;86.99
27643;BME280;15053;48.618;10.024;2023-03-04T12:35:59;94589.69;;;0.96;86.18
27643;BME280;15053;48.618;10.024;2023-03-04T12:41:18;94575.78;;;0.92;85.92
27643;BME280;15053;48.618;10.024;2023-03-04T12:44:11;94570.41;;;0.94;86.48
27643;BME280;15053;48.618;10.024;2023-03-04T12:49:25;94572.41;;;0.92;85.88
27643;BME280;15053;48.618;10.024;2023-03-04T12:54:34;94569.00;;;0.98;85.57
27643;BME280;15053;48.618;10.024;2023-03-04T12:57:14;94568.66;;;1.06;85.52
27643;BME280;15053;48.618;10.024;2023-03-04T13:05:30;94561.88;;;1.11;83.51
27643;BME280;15053;48.618;10.024;2023-03-04T13:08:12;94553.19;;;1.12;83.59
27643;BME280;15053;48.618;10.024;2023-03-04T13:10:40;94552.97;;;1.14;83.42
27643;BME280;15053;48.618;10.024;2023-03-04T13:13:40;94552.53;;;1.17;84.09
27643;BME280;15053;48.618;10.024;2023-03-04T13:18:36;94556.53;;;1.25;82.66
27643;BME280;15053;48.618;10.024;2023-03-04T13:21:20;94552.31;;;1.30;82.46
27643;BME280;15053;48.618;10.024;2023-03-04T13:23:48;94550.88;;;1.34;82.96
27643;BME280;15053;48.618;10.024;2023-03-04T13:26:17;94547.09;;;1.37;82.28
27643;BME280;15053;48.618;10.024;2023-03-04T13:28:51;94549.22;;;1.40;81.84
27643;BME280;15053;48.618;10.024;2023-03-04T13:31:23;94543.28;;;1.39;81.18
27643;BME280;15053;48.618;10.024;2023-03-04T13:33:54;94540.72;;;1.39;81.93
27643;BME280;15053;48.618;10.024;2023-03-04T13:36:59;94538.94;;;1.40;80.92
27643;BME280;15053;48.618;10.024;2023-03-04T13:39:23;94553.91;;;1.43;80.54
27643;BME280;15053;48.618;10.024;2023-03-04T13:41:52;94544.53;;;1.48;80.35
27643;BME280;15053;48.618;10.024;2023-03-04T13:47:16;94547.41;;;1.52;79.37
27643;BME280;15053;48.618;10.024;2023-03-04T13:49:43;94547.66;;;1.50;79.62
27643;BME280;15053;48.618;10.024;2023-03-04T13:52:36;94547.66;;;1.50;79.35
27643;BME280;15053;48.618;10.024;2023-03-04T13:58:00;94542.97;;;1.59;78.37
27643;BME280;15053;48.618;10.024;2023-03-04T14:00:27;94544.06;;;1.63;77.93
27643;BME280;15053;48.618;10.024;2023-03-04T14:02:54;94542.03;;;1.65;77.92
27643;BME280;15053;48.618;10.024;2023-03-04T14:05:20;94531.34;;;1.68;78.16
27643;BME280;15053;48.618;10.024;2023-03-04T14:07:47;94546.38;;;1.76;77.39
27643;BME280;15053;48.618;10.024;2023-03-04T14:12:44;94543.81;;;1.76;77.14
27643;BME280;15053;48.618;10.024;2023-03-04T14:15:18;94544.06;;;1.74;77.19
27643;BME280;15053;48.618;10.024;2023-03-04T14:17:48;94544.75;;;1.70;77.30
27643;BME280;15053;48.618;10.024;2023-03-04T14:22:49;94544.16;;;1.68;76.78
27643;BME280;15053;48.618;10.024;2023-03-04T14:25:23;94541.94;;;1.60;76.50